createdAt,value
2018-10-09T00:00:15.085Z,1014.70
2018-10-09T00:01:15.081Z,1014.72
2018-10-09T00:02:15.074Z,1014.69
2018-10-09T00:03:15.068Z,1014.67
2018-10-09T00:04:15.057Z,1014.71
2018-10-09T00:05:15.049Z,1014.70
2018-10-09T00:06:15.041Z,1014.65
2018-10-09T00:07:15.035Z,1014.66
2018-10-09T00:08:15.025Z,1014.65
2018-10-09T00:09:15.021Z,1014.63
2018-10-09T00:10:15.035Z,1014.58
2018-10-09T00:11:15.010Z,1014.56
2018-10-09T00:12:15.004Z,1014.51
2018-10-09T00:13:14.987Z,1014.53
2018-10-09T00:14:14.989Z,1014.54
2018-10-09T00:15:14.976Z,1014.51
2018-10-09T00:16:14.970Z,1014.52
2018-10-09T00:17:14.963Z,1014.47
2018-10-09T00:18:14.957Z,1014.48
2018-10-09T00:19:14.943Z,1014.46
2018-10-09T00:20:14.935Z,1014.45
2018-10-09T00:21:14.940Z,1014.44
2018-10-09T00:22:14.924Z,1014.46
2018-10-09T00:23:14.965Z,1014.47
2018-10-09T00:24:14.932Z,1014.48
2018-10-09T00:25:14.902Z,1014.53
2018-10-09T00:26:14.992Z,1014.57
2018-10-09T00:27:14.886Z,1014.63
2018-10-09T00:28:14.879Z,1014.64
2018-10-09T00:29:14.870Z,1014.62
2018-10-09T00:30:14.862Z,1014.63
2018-10-09T00:31:14.858Z,1014.62
2018-10-09T00:32:14.856Z,1014.53
2018-10-09T00:33:14.842Z,1014.58
2018-10-09T00:34:14.834Z,1014.61
2018-10-09T00:35:14.825Z,1014.62
2018-10-09T00:36:14.836Z,1014.62
2018-10-09T00:37:14.808Z,1014.64
2018-10-09T00:38:14.801Z,1014.67
2018-10-09T00:39:14.821Z,1014.65
2018-10-09T00:40:14.786Z,1014.64
2018-10-09T00:41:14.777Z,1014.66
2018-10-09T00:42:14.771Z,1014.63
2018-10-09T00:43:14.762Z,1014.64
2018-10-09T00:44:14.755Z,1014.66
2018-10-09T00:45:14.747Z,1014.69
2018-10-09T00:46:14.749Z,1014.67
2018-10-09T00:47:14.734Z,1014.68
2018-10-09T00:48:14.724Z,1014.70
2018-10-09T00:49:14.713Z,1014.69
2018-10-09T00:50:14.712Z,1014.65
2018-10-09T00:51:14.703Z,1014.67
2018-10-09T00:52:14.698Z,1014.64
2018-10-09T00:53:14.688Z,1014.60
2018-10-09T00:54:14.681Z,1014.62
2018-10-09T00:55:14.681Z,1014.65
2018-10-09T00:56:14.670Z,1014.65
2018-10-09T00:57:14.667Z,1014.69
2018-10-09T00:58:14.649Z,1014.70
2018-10-09T00:59:14.643Z,1014.71
2018-10-09T01:00:14.637Z,1014.73
2018-10-09T01:01:14.629Z,1014.73
2018-10-09T01:02:14.673Z,1014.73
2018-10-09T01:03:14.614Z,1014.74
2018-10-09T01:04:14.609Z,1014.76
2018-10-09T01:05:14.600Z,1014.73
2018-10-09T01:06:14.605Z,1014.72
2018-10-09T01:07:14.583Z,1014.72
2018-10-09T01:08:14.578Z,1014.75
2018-10-09T01:09:14.661Z,1014.72
2018-10-09T01:10:14.573Z,1014.70
2018-10-09T01:11:14.558Z,1014.76
2018-10-09T01:12:14.543Z,1014.76
2018-10-09T01:13:14.539Z,1014.76
2018-10-09T01:14:14.527Z,1014.81
2018-10-09T01:15:14.521Z,1014.82
2018-10-09T01:16:14.514Z,1014.81
2018-10-09T01:17:14.503Z,1014.89
2018-10-09T01:18:14.500Z,1014.86
2018-10-09T01:19:14.490Z,1014.89
2018-10-09T01:20:14.484Z,1014.87
2018-10-09T01:21:14.474Z,1014.87
2018-10-09T01:22:14.469Z,1014.86
2018-10-09T01:23:14.456Z,1014.90
2018-10-09T01:24:14.451Z,1014.89
2018-10-09T01:25:14.465Z,1014.90
2018-10-09T01:26:14.439Z,1014.91
2018-10-09T01:27:14.439Z,1014.92
2018-10-09T01:28:14.428Z,1014.91
2018-10-09T01:29:14.414Z,1014.91
2018-10-09T01:30:14.406Z,1014.94
2018-10-09T01:31:14.394Z,1014.96
2018-10-09T01:32:14.388Z,1014.99
2018-10-09T01:33:14.381Z,1014.98
2018-10-09T01:34:14.376Z,1014.95
2018-10-09T01:35:14.371Z,1014.87
2018-10-09T01:36:14.362Z,1014.89
2018-10-09T01:37:14.351Z,1014.89
2018-10-09T01:38:14.343Z,1014.90
2018-10-09T01:39:14.339Z,1014.91
2018-10-09T01:40:14.330Z,1014.87
2018-10-09T01:41:14.322Z,1014.88
2018-10-09T01:42:14.314Z,1014.91
2018-10-09T01:43:14.325Z,1014.88
2018-10-09T01:44:14.292Z,1014.85
2018-10-09T01:45:14.297Z,1014.80
2018-10-09T01:46:14.291Z,1014.79
2018-10-09T01:47:14.277Z,1014.82
2018-10-09T01:48:14.272Z,1014.77
2018-10-09T01:49:14.260Z,1014.78
2018-10-09T01:50:14.282Z,1014.82
2018-10-09T01:51:14.240Z,1014.84
2018-10-09T01:52:14.240Z,1014.80
2018-10-09T01:53:14.238Z,1014.85
2018-10-09T01:54:14.219Z,1014.82
2018-10-09T01:55:14.245Z,1014.79
2018-10-09T01:56:14.202Z,1014.80
2018-10-09T01:57:14.197Z,1014.78
2018-10-09T01:58:14.186Z,1014.77
2018-10-09T01:59:14.183Z,1014.77
2018-10-09T02:00:14.174Z,1014.80
2018-10-09T02:01:14.163Z,1014.77
2018-10-09T02:02:14.159Z,1014.80
2018-10-09T02:03:14.153Z,1014.79
2018-10-09T02:04:14.142Z,1014.76
2018-10-09T02:05:14.130Z,1014.76
2018-10-09T02:06:14.127Z,1014.74
2018-10-09T02:07:14.125Z,1014.68
2018-10-09T02:08:14.114Z,1014.58
2018-10-09T02:09:14.103Z,1014.53
2018-10-09T02:10:14.096Z,1014.52
2018-10-09T02:11:14.089Z,1014.48
2018-10-09T02:12:14.073Z,1014.50
2018-10-09T02:13:14.073Z,1014.48
2018-10-09T02:14:14.065Z,1014.53
2018-10-09T02:15:14.060Z,1014.56
2018-10-09T02:16:14.056Z,1014.53
2018-10-09T02:17:14.041Z,1014.55
2018-10-09T02:18:14.035Z,1014.52
2018-10-09T02:19:14.028Z,1014.49
2018-10-09T02:20:14.018Z,1014.44
2018-10-09T02:21:14.013Z,1014.45
2018-10-09T02:22:14.006Z,1014.44
2018-10-09T02:23:13.992Z,1014.44
2018-10-09T02:24:13.985Z,1014.41
2018-10-09T02:25:13.983Z,1014.39
2018-10-09T02:26:13.973Z,1014.36
2018-10-09T02:27:13.965Z,1014.34
2018-10-09T02:28:13.969Z,1014.38
2018-10-09T02:29:13.945Z,1014.31
2018-10-09T02:30:13.940Z,1014.34
2018-10-09T02:31:13.930Z,1014.35
2018-10-09T02:32:13.921Z,1014.33
2018-10-09T02:33:13.919Z,1014.35
2018-10-09T02:34:13.908Z,1014.35
2018-10-09T02:35:13.906Z,1014.36
2018-10-09T02:36:13.890Z,1014.33
2018-10-09T02:37:13.887Z,1014.34
2018-10-09T02:38:13.880Z,1014.32
2018-10-09T02:39:13.869Z,1014.33
2018-10-09T02:40:13.864Z,1014.33
2018-10-09T02:41:13.853Z,1014.31
2018-10-09T02:42:13.848Z,1014.39
2018-10-09T02:43:13.840Z,1014.36
2018-10-09T02:44:13.827Z,1014.32
2018-10-09T02:45:13.835Z,1014.34
2018-10-09T02:46:13.812Z,1014.28
2018-10-09T02:47:13.797Z,1014.25
2018-10-09T02:48:13.800Z,1014.25
2018-10-09T02:49:13.793Z,1014.23
2018-10-09T02:50:13.781Z,1014.16
2018-10-09T02:51:13.773Z,1014.23
2018-10-09T02:52:13.759Z,1014.16
2018-10-09T02:53:13.756Z,1014.15
2018-10-09T02:54:13.749Z,1014.21
2018-10-09T02:55:13.740Z,1014.16
2018-10-09T02:56:13.733Z,1014.19
2018-10-09T02:57:13.722Z,1014.21
2018-10-09T02:58:13.718Z,1014.18
2018-10-09T02:59:13.708Z,1014.25
2018-10-09T03:00:13.700Z,1014.22
2018-10-09T03:01:13.686Z,1014.21
2018-10-09T03:02:13.682Z,1014.18
2018-10-09T03:03:13.679Z,1014.18
2018-10-09T03:04:13.669Z,1014.18
2018-10-09T03:05:13.672Z,1014.16
2018-10-09T03:06:13.655Z,1014.14
2018-10-09T03:07:13.644Z,1014.17
2018-10-09T03:08:13.632Z,1014.14
2018-10-09T03:09:13.636Z,1014.16
2018-10-09T03:10:13.643Z,1014.17
2018-10-09T03:11:13.627Z,1014.12
2018-10-09T03:12:13.605Z,1014.13
2018-10-09T03:13:13.598Z,1014.18
2018-10-09T03:14:13.594Z,1014.18
2018-10-09T03:15:13.577Z,1014.19
2018-10-09T03:16:13.572Z,1014.21
2018-10-09T03:17:13.564Z,1014.18
2018-10-09T03:18:13.563Z,1014.16
2018-10-09T03:19:13.552Z,1014.19
2018-10-09T03:20:13.537Z,1014.19
2018-10-09T03:21:13.534Z,1014.25
2018-10-09T03:23:50.592Z,1014.24
2018-10-09T03:24:50.529Z,1014.22
2018-10-09T03:25:50.538Z,1014.26
2018-10-09T03:26:50.631Z,1014.24
2018-10-09T03:27:50.503Z,1014.25
2018-10-09T03:28:50.482Z,1014.24
2018-10-09T03:29:50.477Z,1014.23
2018-10-09T03:30:50.463Z,1014.21
2018-10-09T03:31:50.454Z,1014.19
2018-10-09T03:32:50.451Z,1014.15
2018-10-09T03:33:50.440Z,1014.14
2018-10-09T03:34:50.441Z,1014.08
2018-10-09T03:35:50.424Z,1014.08
2018-10-09T03:36:50.418Z,1014.04
2018-10-09T03:37:50.406Z,1014.06
2018-10-09T03:38:50.400Z,1014.03
2018-10-09T03:39:50.394Z,1014.04
2018-10-09T03:40:50.387Z,1014.03
2018-10-09T03:41:50.379Z,1014.07
2018-10-09T03:42:50.374Z,1014.06
2018-10-09T03:43:50.359Z,1014.09
2018-10-09T03:44:50.349Z,1014.09
2018-10-09T03:45:50.341Z,1014.12
2018-10-09T03:46:50.337Z,1014.10
2018-10-09T03:47:50.324Z,1014.13
2018-10-09T03:48:50.325Z,1014.17
2018-10-09T03:49:50.315Z,1014.15
2018-10-09T03:50:50.307Z,1014.18
2018-10-09T03:51:51.184Z,1014.21
2018-10-09T03:52:50.286Z,1014.23
2018-10-09T03:53:50.286Z,1014.20
2018-10-09T03:54:50.277Z,1014.24
2018-10-09T03:55:50.263Z,1014.22
2018-10-09T03:56:50.249Z,1014.20
2018-10-09T03:57:50.246Z,1014.18
2018-10-09T03:58:50.237Z,1014.17
2018-10-09T03:59:50.229Z,1014.15
2018-10-09T04:00:50.219Z,1014.16
2018-10-09T04:01:50.214Z,1014.16
2018-10-09T04:02:50.211Z,1014.16
2018-10-09T04:03:50.194Z,1014.14
2018-10-09T04:04:50.186Z,1014.17
2018-10-09T04:05:50.191Z,1014.17
2018-10-09T04:06:50.172Z,1014.15
2018-10-09T04:07:50.175Z,1014.12
2018-10-09T04:08:50.173Z,1014.15
2018-10-09T04:09:50.146Z,1014.15
2018-10-09T04:10:50.139Z,1014.15
2018-10-09T04:11:50.129Z,1014.13
2018-10-09T04:12:50.229Z,1014.19
2018-10-09T04:13:50.112Z,1014.17
2018-10-09T04:14:50.126Z,1014.19
2018-10-09T04:15:50.106Z,1014.18
2018-10-09T04:16:50.091Z,1014.16
2018-10-09T04:17:50.102Z,1014.20
2018-10-09T04:18:50.075Z,1014.17
2018-10-09T04:19:50.062Z,1014.20
2018-10-09T04:20:50.061Z,1014.22
2018-10-09T04:21:50.057Z,1014.19
2018-10-09T04:22:50.039Z,1014.17
2018-10-09T04:23:50.033Z,1014.16
2018-10-09T04:24:50.024Z,1014.17
2018-10-09T04:25:50.012Z,1014.15
2018-10-09T04:26:50.008Z,1014.16
2018-10-09T04:27:50.006Z,1014.16
2018-10-09T04:28:50.012Z,1014.17
2018-10-09T04:29:50.009Z,1014.21
2018-10-09T04:30:49.984Z,1014.25
2018-10-09T04:31:49.972Z,1014.27
2018-10-09T04:32:49.995Z,1014.29
2018-10-09T04:33:49.979Z,1014.31
2018-10-09T04:34:49.949Z,1014.35
2018-10-09T04:35:49.960Z,1014.37
2018-10-09T04:36:49.926Z,1014.35
2018-10-09T04:37:49.918Z,1014.36
2018-10-09T04:38:49.908Z,1014.38
2018-10-09T04:39:49.913Z,1014.37
2018-10-09T04:40:49.891Z,1014.41
2018-10-09T04:41:49.887Z,1014.40
2018-10-09T04:42:49.887Z,1014.42
2018-10-09T04:43:49.869Z,1014.41
2018-10-09T04:44:49.859Z,1014.41
2018-10-09T04:45:49.860Z,1014.39
2018-10-09T04:46:49.853Z,1014.36
2018-10-09T04:47:49.842Z,1014.36
2018-10-09T04:48:49.823Z,1014.36
2018-10-09T04:49:49.816Z,1014.35
2018-10-09T04:50:49.809Z,1014.35
2018-10-09T04:51:49.807Z,1014.34
2018-10-09T04:52:49.794Z,1014.33
2018-10-09T04:53:49.790Z,1014.41
2018-10-09T04:54:49.778Z,1014.38
2018-10-09T04:55:49.765Z,1014.38
2018-10-09T04:56:49.759Z,1014.39
2018-10-09T04:57:49.754Z,1014.37
2018-10-09T04:58:49.745Z,1014.37
2018-10-09T04:59:49.741Z,1014.37
2018-10-09T05:00:49.813Z,1014.34
2018-10-09T05:01:49.722Z,1014.36
2018-10-09T05:02:49.716Z,1014.34
2018-10-09T05:03:49.699Z,1014.35
2018-10-09T05:04:49.696Z,1014.35
2018-10-09T05:05:49.684Z,1014.38
2018-10-09T05:06:49.678Z,1014.40
2018-10-09T05:07:49.667Z,1014.38
2018-10-09T05:08:49.671Z,1014.44
2018-10-09T05:09:49.655Z,1014.45
2018-10-09T05:10:49.644Z,1014.46
2018-10-09T05:11:49.635Z,1014.46
2018-10-09T05:12:49.626Z,1014.45
2018-10-09T05:13:49.625Z,1014.47
2018-10-09T05:14:49.612Z,1014.48
2018-10-09T05:15:49.626Z,1014.46
2018-10-09T05:16:49.595Z,1014.44
2018-10-09T05:17:49.705Z,1014.41
2018-10-09T05:18:49.576Z,1014.44
2018-10-09T05:19:49.565Z,1014.45
2018-10-09T05:20:49.562Z,1014.48
2018-10-09T05:21:49.551Z,1014.48
2018-10-09T05:22:49.550Z,1014.50
2018-10-09T05:23:49.550Z,1014.45
2018-10-09T05:24:49.550Z,1014.38
2018-10-09T05:25:49.519Z,1014.30
2018-10-09T05:26:49.519Z,1014.28
2018-10-09T05:27:50.224Z,1014.28
2018-10-09T05:28:49.494Z,1014.28
2018-10-09T05:29:49.505Z,1014.28
2018-10-09T05:30:49.480Z,1014.31
2018-10-09T05:31:49.467Z,1014.35
2018-10-09T05:32:49.457Z,1014.40
2018-10-09T05:33:49.454Z,1014.43
2018-10-09T05:34:49.443Z,1014.41
2018-10-09T05:35:49.435Z,1014.37
2018-10-09T05:36:49.431Z,1014.37
2018-10-09T05:37:49.562Z,1014.35
2018-10-09T05:38:49.410Z,1014.36
2018-10-09T05:39:49.400Z,1014.33
2018-10-09T05:40:49.410Z,1014.36
2018-10-09T05:41:49.395Z,1014.35
2018-10-09T05:42:49.380Z,1014.39
2018-10-09T05:43:49.372Z,1014.39
2018-10-09T05:44:58.187Z,1014.41
2018-10-09T05:46:46.881Z,1014.45
2018-10-09T05:47:43.071Z,1014.46
2018-10-09T05:49:36.660Z,1014.48
2018-10-09T05:50:36.636Z,1014.48
2018-10-09T05:52:30.433Z,1014.46
2018-10-09T05:53:30.220Z,1014.47
2018-10-09T05:55:24.272Z,1014.49
2018-10-09T05:56:23.781Z,1014.49
2018-10-09T05:57:24.739Z,1014.52
2018-10-09T05:58:23.786Z,1014.52
2018-10-09T05:59:23.791Z,1014.57
2018-10-09T06:00:23.792Z,1014.51
2018-10-09T06:01:23.739Z,1014.58
2018-10-09T06:02:23.732Z,1014.50
2018-10-09T06:03:23.725Z,1014.53
2018-10-09T06:04:23.721Z,1014.53
2018-10-09T06:05:23.710Z,1014.51
2018-10-09T06:06:23.695Z,1014.48
2018-10-09T06:07:23.700Z,1014.53
2018-10-09T06:08:23.678Z,1014.52
2018-10-09T06:09:23.673Z,1014.50
2018-10-09T06:10:23.687Z,1014.51
2018-10-09T06:11:23.661Z,1014.54
2018-10-09T06:12:23.645Z,1014.52
2018-10-09T06:13:23.637Z,1014.51
2018-10-09T06:14:23.636Z,1014.49
2018-10-09T06:15:23.685Z,1014.47
2018-10-09T06:16:23.613Z,1014.48
2018-10-09T06:17:23.608Z,1014.49
2018-10-09T06:18:24.150Z,1014.47
2018-10-09T06:19:23.586Z,1014.47
2018-10-09T06:20:23.582Z,1014.49
2018-10-09T06:21:23.570Z,1014.52
2018-10-09T06:22:23.565Z,1014.54
2018-10-09T06:23:23.561Z,1014.59
2018-10-09T06:24:23.547Z,1014.65
2018-10-09T06:25:23.542Z,1014.69
2018-10-09T06:26:23.528Z,1014.73
2018-10-09T06:27:23.523Z,1014.72
2018-10-09T06:28:23.615Z,1014.73
2018-10-09T06:29:23.513Z,1014.72
2018-10-09T06:30:23.512Z,1014.74
2018-10-09T06:31:23.502Z,1014.74
2018-10-09T06:32:23.495Z,1014.76
2018-10-09T06:33:23.471Z,1014.79
2018-10-09T06:34:23.468Z,1014.82
2018-10-09T06:35:23.463Z,1014.86
2018-10-09T06:36:23.452Z,1014.86
2018-10-09T06:37:23.499Z,1014.88
2018-10-09T06:38:23.428Z,1014.86
2018-10-09T06:39:23.442Z,1014.84
2018-10-09T06:40:23.424Z,1014.86
2018-10-09T06:41:23.418Z,1014.85
2018-10-09T06:42:23.403Z,1014.83
2018-10-09T06:43:23.400Z,1014.88
2018-10-09T06:44:23.379Z,1014.91
2018-10-09T06:45:23.371Z,1014.89
2018-10-09T06:46:23.364Z,1014.97
2018-10-09T06:47:23.411Z,1015.01
2018-10-09T06:48:23.351Z,1015.05
2018-10-09T06:49:23.341Z,1015.05
2018-10-09T06:50:23.335Z,1015.08
2018-10-09T06:51:23.328Z,1015.05
2018-10-09T06:52:23.323Z,1015.12
2018-10-09T06:53:23.372Z,1015.06
2018-10-09T06:54:23.352Z,1015.11
2018-10-09T06:55:23.294Z,1015.09
2018-10-09T06:56:23.286Z,1015.09
2018-10-09T06:57:23.273Z,1015.10
2018-10-09T06:58:23.266Z,1015.10
2018-10-09T06:59:23.259Z,1015.09
2018-10-09T07:00:23.359Z,1015.05
2018-10-09T07:01:23.249Z,1015.04
2018-10-09T07:02:23.236Z,1015.02
2018-10-09T07:03:23.231Z,1015.05
2018-10-09T07:04:23.222Z,1015.04
2018-10-09T07:05:23.213Z,1015.03
2018-10-09T07:06:23.207Z,1015.05
2018-10-09T07:07:23.197Z,1015.11
2018-10-09T07:08:23.188Z,1015.13
2018-10-09T07:09:23.240Z,1015.10
2018-10-09T07:10:23.176Z,1015.15
2018-10-09T07:11:23.237Z,1015.12
2018-10-09T07:12:23.158Z,1015.14
2018-10-09T07:13:23.151Z,1015.05
2018-10-09T07:14:23.144Z,1015.11
2018-10-09T07:15:23.132Z,1015.07
2018-10-09T07:16:23.133Z,1015.14
2018-10-09T07:17:23.122Z,1015.14
2018-10-09T07:18:23.113Z,1015.18
2018-10-09T07:19:23.102Z,1015.23
2018-10-09T07:20:23.331Z,1015.24
2018-10-09T07:21:23.088Z,1015.24
2018-10-09T07:22:23.079Z,1015.24
2018-10-09T07:23:23.078Z,1015.25
2018-10-09T07:24:23.070Z,1015.27
2018-10-09T07:25:23.058Z,1015.26
2018-10-09T07:26:23.050Z,1015.24
2018-10-09T07:27:23.042Z,1015.25
2018-10-09T07:28:23.046Z,1015.29
2018-10-09T07:29:23.031Z,1015.32
2018-10-09T07:30:23.018Z,1015.34
2018-10-09T07:31:23.013Z,1015.38
2018-10-09T07:32:23.016Z,1015.39
2018-10-09T07:33:23.000Z,1015.36
2018-10-09T07:34:22.994Z,1015.38
2018-10-09T07:35:22.980Z,1015.34
2018-10-09T07:36:22.978Z,1015.34
2018-10-09T07:37:23.003Z,1015.32
2018-10-09T07:38:22.961Z,1015.35
2018-10-09T07:39:22.961Z,1015.33
2018-10-09T07:40:22.947Z,1015.35
2018-10-09T07:41:22.939Z,1015.38
2018-10-09T07:42:22.942Z,1015.37
2018-10-09T07:43:22.927Z,1015.44
2018-10-09T07:44:22.959Z,1015.40
2018-10-09T07:45:22.917Z,1015.43
2018-10-09T07:46:22.905Z,1015.43
2018-10-09T07:47:22.893Z,1015.47
2018-10-09T07:48:22.891Z,1015.43
2018-10-09T07:49:22.888Z,1015.42
2018-10-09T07:50:22.876Z,1015.36
2018-10-09T07:51:22.871Z,1015.33
2018-10-09T07:52:22.861Z,1015.34
2018-10-09T07:53:22.858Z,1015.35
2018-10-09T07:54:22.847Z,1015.39
2018-10-09T07:55:22.840Z,1015.39
2018-10-09T07:56:22.845Z,1015.41
2018-10-09T07:57:22.831Z,1015.51
2018-10-09T07:58:22.821Z,1015.52
2018-10-09T07:59:22.817Z,1015.50
2018-10-09T08:00:22.809Z,1015.51
2018-10-09T08:01:22.802Z,1015.49
2018-10-09T08:02:22.791Z,1015.51
2018-10-09T08:03:22.788Z,1015.53
2018-10-09T08:04:22.782Z,1015.54
2018-10-09T08:05:22.790Z,1015.55
2018-10-09T08:06:22.768Z,1015.57
2018-10-09T08:07:22.762Z,1015.55
2018-10-09T08:08:22.761Z,1015.54
2018-10-09T08:09:22.751Z,1015.59
2018-10-09T08:10:22.792Z,1015.57
2018-10-09T08:11:22.749Z,1015.57
2018-10-09T08:12:22.727Z,1015.55
2018-10-09T08:13:22.719Z,1015.57
2018-10-09T08:14:22.722Z,1015.56
2018-10-09T08:15:22.717Z,1015.48
2018-10-09T08:16:22.735Z,1015.52
2018-10-09T08:17:22.698Z,1015.46
2018-10-09T08:18:22.689Z,1015.47
2018-10-09T08:19:22.679Z,1015.46
2018-10-09T08:20:22.684Z,1015.47
2018-10-09T08:21:22.668Z,1015.45
2018-10-09T08:22:22.705Z,1015.52
2018-10-09T08:23:22.658Z,1015.51
2018-10-09T08:24:22.653Z,1015.55
2018-10-09T08:25:22.645Z,1015.57
2018-10-09T08:26:22.640Z,1015.61
2018-10-09T08:27:22.633Z,1015.63
2018-10-09T08:28:22.631Z,1015.63
2018-10-09T08:29:22.622Z,1015.63
2018-10-09T08:30:22.621Z,1015.64
2018-10-09T08:31:22.612Z,1015.70
2018-10-09T08:32:22.674Z,1015.71
2018-10-09T08:33:22.602Z,1015.78
2018-10-09T08:34:22.614Z,1015.78
2018-10-09T08:35:22.625Z,1015.80
2018-10-09T08:36:22.585Z,1015.78
2018-10-09T08:37:22.579Z,1015.82
2018-10-09T08:38:22.572Z,1015.84
2018-10-09T08:39:22.564Z,1015.84
2018-10-09T08:40:22.627Z,1015.84
2018-10-09T08:41:23.292Z,1015.80
2018-10-09T08:42:22.553Z,1015.84
2018-10-09T08:43:22.550Z,1015.83
2018-10-09T08:44:22.539Z,1015.82
2018-10-09T08:45:22.549Z,1015.79
2018-10-09T08:46:22.602Z,1015.84
2018-10-09T08:47:22.526Z,1015.88
2018-10-09T08:48:22.522Z,1015.90
2018-10-09T08:49:22.517Z,1015.90
2018-10-09T08:50:22.512Z,1015.88
2018-10-09T08:51:22.507Z,1015.87
2018-10-09T08:52:22.497Z,1015.87
2018-10-09T08:53:22.494Z,1015.84
2018-10-09T08:54:22.489Z,1015.84
2018-10-09T08:55:22.483Z,1015.82
2018-10-09T08:56:22.483Z,1015.85
2018-10-09T08:57:22.484Z,1015.85
2018-10-09T08:58:22.472Z,1015.91
2018-10-09T08:59:22.462Z,1015.89
2018-10-09T09:00:22.460Z,1015.93
2018-10-09T09:01:22.453Z,1015.94
2018-10-09T09:02:22.455Z,1015.95
2018-10-09T09:03:22.464Z,1015.96
2018-10-09T09:04:22.440Z,1015.96
2018-10-09T09:05:22.432Z,1015.95
2018-10-09T09:06:22.432Z,1015.96
2018-10-09T09:07:22.429Z,1015.96
2018-10-09T09:08:22.420Z,1015.95
2018-10-09T09:09:22.412Z,1015.96
2018-10-09T09:10:22.408Z,1015.99
2018-10-09T09:11:22.405Z,1016.02
2018-10-09T09:12:22.402Z,1016.03
2018-10-09T09:13:22.399Z,1016.03
2018-10-09T09:14:22.387Z,1016.05
2018-10-09T09:15:22.393Z,1016.09
2018-10-09T09:16:22.384Z,1016.09
2018-10-09T09:17:22.379Z,1016.06
2018-10-09T09:18:22.373Z,1016.07
2018-10-09T09:19:22.368Z,1016.08
2018-10-09T09:20:22.421Z,1016.07
2018-10-09T09:21:22.434Z,1016.11
2018-10-09T09:22:22.373Z,1016.11
2018-10-09T09:23:22.357Z,1016.12
2018-10-09T09:24:22.353Z,1016.09
2018-10-09T09:25:22.348Z,1016.10
2018-10-09T09:26:22.369Z,1016.11
2018-10-09T09:27:22.364Z,1016.11
2018-10-09T09:28:22.339Z,1016.06
2018-10-09T09:29:22.337Z,1016.06
2018-10-09T09:30:22.339Z,1016.12
2018-10-09T09:31:22.339Z,1016.10
2018-10-09T09:32:22.337Z,1016.12
2018-10-09T09:33:22.335Z,1016.12
2018-10-09T09:34:22.337Z,1016.09
2018-10-09T09:35:22.337Z,1016.07
2018-10-09T09:36:22.340Z,1016.09
2018-10-09T09:37:22.335Z,1016.06
2018-10-09T09:38:22.331Z,1016.07
2018-10-09T09:39:22.338Z,1016.03
2018-10-09T09:40:22.331Z,1016.08
2018-10-09T09:41:22.329Z,1016.09
2018-10-09T09:42:22.333Z,1016.13
2018-10-09T09:43:22.337Z,1016.17
2018-10-09T09:44:22.333Z,1016.14
2018-10-09T09:45:22.343Z,1016.12
2018-10-09T09:46:22.369Z,1016.09
2018-10-09T09:47:22.348Z,1016.08
2018-10-09T09:48:22.343Z,1016.05
2018-10-09T09:49:22.345Z,1016.03
2018-10-09T09:50:22.346Z,1016.03
2018-10-09T09:51:22.355Z,1016.00
2018-10-09T09:52:22.355Z,1015.98
2018-10-09T09:53:22.355Z,1015.99
2018-10-09T09:54:22.355Z,1015.98
2018-10-09T09:55:22.359Z,1015.94
2018-10-09T09:56:22.367Z,1015.95
2018-10-09T09:57:22.372Z,1015.96
2018-10-09T09:58:22.500Z,1015.95
2018-10-09T09:59:22.550Z,1015.95
2018-10-09T10:00:22.362Z,1015.92
2018-10-09T10:01:22.364Z,1015.87
2018-10-09T10:02:22.367Z,1015.91
2018-10-09T10:03:22.367Z,1015.90
2018-10-09T10:04:22.373Z,1015.92
2018-10-09T10:05:22.369Z,1015.93
2018-10-09T10:06:22.375Z,1015.96
2018-10-09T10:07:22.381Z,1015.95
2018-10-09T10:08:22.377Z,1015.93
2018-10-09T10:09:22.494Z,1015.93
2018-10-09T10:10:22.379Z,1015.92
2018-10-09T10:11:22.380Z,1015.87
2018-10-09T10:12:22.374Z,1015.86
2018-10-09T10:13:22.379Z,1015.87
2018-10-09T10:14:22.381Z,1015.87
2018-10-09T10:15:22.388Z,1015.87
2018-10-09T10:16:22.386Z,1015.88
2018-10-09T10:17:22.381Z,1015.88
2018-10-09T10:18:22.380Z,1015.90
2018-10-09T10:19:22.386Z,1015.88
2018-10-09T10:20:22.384Z,1015.92
2018-10-09T10:21:25.317Z,1015.89
2018-10-09T10:22:23.276Z,1015.90
2018-10-09T10:23:22.396Z,1015.91
2018-10-09T10:24:22.399Z,1015.84
2018-10-09T10:25:22.399Z,1015.85
2018-10-09T10:26:22.423Z,1015.83
2018-10-09T10:27:22.403Z,1015.83
2018-10-09T10:28:22.404Z,1015.80
2018-10-09T10:29:22.409Z,1015.82
2018-10-09T10:30:22.413Z,1015.79
2018-10-09T10:31:22.408Z,1015.78
2018-10-09T10:32:22.429Z,1015.81
2018-10-09T10:33:22.416Z,1015.76
2018-10-09T10:34:22.418Z,1015.77
2018-10-09T10:35:22.421Z,1015.75
2018-10-09T10:36:22.422Z,1015.75
2018-10-09T10:37:22.466Z,1015.75
2018-10-09T10:38:22.442Z,1015.72
2018-10-09T10:39:22.438Z,1015.74
2018-10-09T10:40:22.449Z,1015.78
2018-10-09T10:41:22.445Z,1015.75
2018-10-09T10:42:22.448Z,1015.74
2018-10-09T10:43:22.446Z,1015.72
2018-10-09T10:44:22.456Z,1015.68
2018-10-09T10:45:22.458Z,1015.70
2018-10-09T10:46:22.462Z,1015.72
2018-10-09T10:47:22.466Z,1015.70
2018-10-09T10:48:22.469Z,1015.64
2018-10-09T10:49:22.514Z,1015.68
2018-10-09T10:50:22.480Z,1015.65
2018-10-09T10:51:22.480Z,1015.68
2018-10-09T10:52:22.488Z,1015.69
2018-10-09T10:53:22.487Z,1015.68
2018-10-09T10:54:22.496Z,1015.70
2018-10-09T10:55:22.504Z,1015.66
2018-10-09T10:56:22.509Z,1015.69
2018-10-09T10:57:22.505Z,1015.66
2018-10-09T10:58:22.521Z,1015.58
2018-10-09T10:59:22.525Z,1015.53
2018-10-09T11:00:22.521Z,1015.53
2018-10-09T11:01:22.669Z,1015.56
2018-10-09T11:02:22.531Z,1015.58
2018-10-09T11:03:22.534Z,1015.56
2018-10-09T11:04:22.544Z,1015.56
2018-10-09T11:05:22.545Z,1015.57
2018-10-09T11:06:22.551Z,1015.63
2018-10-09T11:07:22.564Z,1015.55
2018-10-09T11:08:22.566Z,1015.55
2018-10-09T11:09:22.556Z,1015.57
2018-10-09T11:10:22.567Z,1015.58
2018-10-09T11:11:22.568Z,1015.59
2018-10-09T11:12:22.572Z,1015.55
2018-10-09T11:13:22.573Z,1015.57
2018-10-09T11:14:22.580Z,1015.56
2018-10-09T11:15:22.579Z,1015.55
2018-10-09T11:16:22.584Z,1015.50
2018-10-09T11:17:22.587Z,1015.49
2018-10-09T11:18:22.594Z,1015.46
2018-10-09T11:19:22.595Z,1015.49
2018-10-09T11:20:22.598Z,1015.45
2018-10-09T11:21:22.765Z,1015.48
2018-10-09T11:22:22.604Z,1015.49
2018-10-09T11:23:22.612Z,1015.51
2018-10-09T11:24:22.609Z,1015.49
2018-10-09T11:25:22.618Z,1015.46
2018-10-09T11:26:22.614Z,1015.49
2018-10-09T11:27:22.617Z,1015.46
2018-10-09T11:28:22.627Z,1015.48
2018-10-09T11:29:22.629Z,1015.44
2018-10-09T11:30:22.628Z,1015.42
2018-10-09T11:31:22.631Z,1015.41
2018-10-09T11:32:22.632Z,1015.40
2018-10-09T11:33:22.630Z,1015.40
2018-10-09T11:34:22.636Z,1015.43
2018-10-09T11:35:22.634Z,1015.40
2018-10-09T11:36:22.641Z,1015.40
2018-10-09T11:37:22.640Z,1015.38
2018-10-09T11:38:22.647Z,1015.32
2018-10-09T11:39:22.641Z,1015.33
2018-10-09T11:40:22.647Z,1015.31
2018-10-09T11:41:22.649Z,1015.33
2018-10-09T11:42:22.648Z,1015.32
2018-10-09T11:43:22.650Z,1015.31
2018-10-09T11:44:22.653Z,1015.31
2018-10-09T11:45:22.656Z,1015.31
2018-10-09T11:46:22.661Z,1015.26
2018-10-09T11:47:22.657Z,1015.26
2018-10-09T11:48:22.660Z,1015.25
2018-10-09T11:49:22.667Z,1015.24
2018-10-09T11:50:22.668Z,1015.26
2018-10-09T11:51:22.674Z,1015.28
2018-10-09T11:52:22.690Z,1015.26
2018-10-09T11:53:22.702Z,1015.25
2018-10-09T11:54:22.682Z,1015.28
2018-10-09T11:55:22.684Z,1015.23
2018-10-09T11:56:22.685Z,1015.28
2018-10-09T11:57:22.684Z,1015.26
2018-10-09T11:58:22.691Z,1015.31
2018-10-09T11:59:22.690Z,1015.30
2018-10-09T12:00:22.695Z,1015.28
2018-10-09T12:01:22.695Z,1015.26
2018-10-09T12:02:22.698Z,1015.28
2018-10-09T12:03:22.702Z,1015.28
2018-10-09T12:04:22.706Z,1015.25
2018-10-09T12:05:22.709Z,1015.22
2018-10-09T12:06:22.705Z,1015.22
2018-10-09T12:07:22.714Z,1015.19
2018-10-09T12:08:22.713Z,1015.20
2018-10-09T12:09:22.718Z,1015.22
2018-10-09T12:10:22.718Z,1015.18